sensor_id;sensor_type;location;lat;lon;timestamp;pressure;altitude;pressure_sealevel;temperature;humidity
73332;BME280;61560;33.718;73.040;2023-05-20T00:00:46;94109.84;;;26.02;41.33
73332;BME280;61560;33.718;73.040;2023-05-20T00:03:16;94110.97;;;25.93;41.56
73332;BME280;61560;33.718;73.040;2023-05-20T00:05:43;94113.25;;;25.95;41.51
73332;BME280;61560;33.718;73.040;2023-05-20T00:08:10;94115.28;;;25.94;41.67
73332;BME280;61560;33.718;73.040;2023-05-20T00:10:36;94113.56;;;25.91;41.92
73332;BME280;61560;33.718;73.040;2023-05-20T00:13:03;94122.72;;;25.92;41.90
73332;BME280;61560;33.718;73.040;2023-05-20T00:15:32;94118.84;;;25.95;41.87
73332;BME280;61560;33.718;73.040;2023-05-20T00:18:02;94126.03;;;25.90;42.19
73332;BME280;61560;33.718;73.040;2023-05-20T00:20:29;94121.81;;;25.84;42.33
73332;BME280;61560;33.718;73.040;2023-05-20T00:22:56;94127.66;;;25.86;42.54
73332;BME280;61560;33.718;73.040;2023-05-20T00:25:22;94131.88;;;25.92;42.01
73332;BME280;61560;33.718;73.040;2023-05-20T00:27:49;94119.53;;;26.01;40.83
73332;BME280;61560;33.718;73.040;2023-05-20T00:30:15;94126.56;;;26.13;40.45
73332;BME280;61560;33.718;73.040;2023-05-20T00:32:42;94118.06;;;26.19;40.11
73332;BME280;61560;33.718;73.040;2023-05-20T00:35:09;94131.19;;;26.29;39.28
73332;BME280;61560;33.718;73.040;2023-05-20T00:37:36;94132.34;;;26.39;38.97
73332;BME280;61560;33.718;73.040;2023-05-20T00:40:03;94133.22;;;26.47;38.73
73332;BME280;61560;33.718;73.040;2023-05-20T00:42:29;94135.19;;;26.52;38.22
73332;BME280;61560;33.718;73.040;2023-05-20T00:44:56;94131.78;;;26.59;38.35
73332;BME280;61560;33.718;73.040;2023-05-20T00:47:27;94130.41;;;26.66;38.55
73332;BME280;61560;33.718;73.040;2023-05-20T00:49:55;94135.34;;;26.60;38.94
73332;BME280;61560;33.718;73.040;2023-05-20T00:52:23;94133.69;;;26.51;39.00
73332;BME280;61560;33.718;73.040;2023-05-20T00:54:51;94145.44;;;26.50;39.55
73332;BME280;61560;33.718;73.040;2023-05-20T00:57:18;94136.28;;;26.49;39.89
73332;BME280;61560;33.718;73.040;2023-05-20T00:59:46;94139.31;;;26.51;40.15
73332;BME280;61560;33.718;73.040;2023-05-20T01:02:13;94142.84;;;26.52;40.15
73332;BME280;61560;33.718;73.040;2023-05-20T01:04:40;94140.28;;;26.54;40.83
73332;BME280;61560;33.718;73.040;2023-05-20T01:07:16;94147.03;;;26.64;40.67
73332;BME280;61560;33.718;73.040;2023-05-20T01:09:43;94137.22;;;26.70;40.37
73332;BME280;61560;33.718;73.040;2023-05-20T01:12:25;94146.72;;;26.86;41.01
73332;BME280;61560;33.718;73.040;2023-05-20T01:15:00;94140.72;;;27.08;41.70
73332;BME280;61560;33.718;73.040;2023-05-20T01:17:30;94140.78;;;27.21;41.85
73332;BME280;61560;33.718;73.040;2023-05-20T01:20:03;94138.66;;;27.40;41.31
73332;BME280;61560;33.718;73.040;2023-05-20T01:22:31;94141.38;;;27.59;40.87
73332;BME280;61560;33.718;73.040;2023-05-20T01:24:57;94144.22;;;28.11;40.17
73332;BME280;61560;33.718;73.040;2023-05-20T01:27:25;94143.19;;;29.02;37.93
73332;BME280;61560;33.718;73.040;2023-05-20T01:29:52;94150.53;;;30.24;35.76
73332;BME280;61560;33.718;73.040;2023-05-20T01:32:23;94143.94;;;31.53;33.69
73332;BME280;61560;33.718;73.040;2023-05-20T01:34:51;94145.66;;;32.56;31.81
73332;BME280;61560;33.718;73.040;2023-05-20T01:37:19;94143.38;;;33.59;30.09
73332;BME280;61560;33.718;73.040;2023-05-20T01:39:48;94144.78;;;34.51;28.62
73332;BME280;61560;33.718;73.040;2023-05-20T01:42:16;94146.72;;;35.36;27.60
73332;BME280;61560;33.718;73.040;2023-05-20T01:44:44;94147.75;;;36.03;26.86
73332;BME280;61560;33.718;73.040;2023-05-20T01:47:12;94144.81;;;36.68;25.39
73332;BME280;61560;33.718;73.040;2023-05-20T01:49:38;94145.09;;;37.11;23.49
73332;BME280;61560;33.718;73.040;2023-05-20T01:52:05;94139.94;;;37.38;23.75
73332;BME280;61560;33.718;73.040;2023-05-20T01:54:32;94143.88;;;37.63;22.85
73332;BME280;61560;33.718;73.040;2023-05-20T01:56:59;94136.91;;;37.76;22.65
73332;BME280;61560;33.718;73.040;2023-05-20T01:59:25;94137.19;;;37.49;22.89
73332;BME280;61560;33.718;73.040;2023-05-20T02:01:52;94139.53;;;36.84;24.07
73332;BME280;61560;33.718;73.040;2023-05-20T02:04:18;94134.41;;;36.15;25.56
73332;BME280;61560;33.718;73.040;2023-05-20T02:06:46;94146.16;;;35.83;25.74
73332;BME280;61560;33.718;73.040;2023-05-20T02:09:14;94151.81;;;35.74;27.32
73332;BME280;61560;33.718;73.040;2023-05-20T02:11:41;94161.41;;;35.69;26.62
73332;BME280;61560;33.718;73.040;2023-05-20T02:14:07;94160.25;;;35.81;26.63
73332;BME280;61560;33.718;73.040;2023-05-20T02:16:34;94161.03;;;35.91;26.25
73332;BME280;61560;33.718;73.040;2023-05-20T02:19:00;94158.53;;;36.05;26.69
73332;BME280;61560;33.718;73.040;2023-05-20T02:21:27;94159.44;;;36.07;26.63
73332;BME280;61560;33.718;73.040;2023-05-20T02:23:54;94166.94;;;36.03;26.76
73332;BME280;61560;33.718;73.040;2023-05-20T02:26:20;94163.69;;;36.16;27.06
73332;BME280;61560;33.718;73.040;2023-05-20T02:28:47;94167.28;;;36.36;26.89
73332;BME280;61560;33.718;73.040;2023-05-20T02:31:15;94162.69;;;36.50;26.26
73332;BME280;61560;33.718;73.040;2023-05-20T02:33:43;94152.47;;;36.47;26.40
73332;BME280;61560;33.718;73.040;2023-05-20T02:36:10;94169.16;;;36.69;26.41
73332;BME280;61560;33.718;73.040;2023-05-20T02:38:37;94158.06;;;36.92;26.27
73332;BME280;61560;33.718;73.040;2023-05-20T02:41:04;94154.13;;;36.97;26.15
73332;BME280;61560;33.718;73.040;2023-05-20T02:43:32;94165.38;;;37.05;25.82
73332;BME280;61560;33.718;73.040;2023-05-20T02:46:00;94152.78;;;36.79;26.22
73332;BME280;61560;33.718;73.040;2023-05-20T02:48:27;94149.63;;;36.75;26.78
73332;BME280;61560;33.718;73.040;2023-05-20T02:50:53;94152.91;;;36.81;26.43
73332;BME280;61560;33.718;73.040;2023-05-20T02:53:20;94146.34;;;36.88;25.73
73332;BME280;61560;33.718;73.040;2023-05-20T02:55:46;94148.09;;;37.03;25.93
73332;BME280;61560;33.718;73.040;2023-05-20T02:58:14;94147.50;;;36.95;25.77
73332;BME280;61560;33.718;73.040;2023-05-20T03:00:43;94144.97;;;36.89;25.60
73332;BME280;61560;33.718;73.040;2023-05-20T03:03:09;94148.69;;;37.02;25.60
73332;BME280;61560;33.718;73.040;2023-05-20T03:05:36;94149.94;;;36.99;25.69
73332;BME280;61560;33.718;73.040;2023-05-20T03:08:08;94148.56;;;37.00;25.82
73332;BME280;61560;33.718;73.040;2023-05-20T03:10:36;94149.63;;;36.94;24.98
73332;BME280;61560;33.718;73.040;2023-05-20T03:13:04;94153.50;;;36.99;24.74
73332;BME280;61560;33.718;73.040;2023-05-20T03:15:37;94145.56;;;36.97;24.90
73332;BME280;61560;33.718;73.040;2023-05-20T03:18:05;94137.06;;;37.28;25.11
73332;BME280;61560;33.718;73.040;2023-05-20T03:20:32;94147.28;;;37.31;24.41
73332;BME280;61560;33.718;73.040;2023-05-20T03:22:58;94146.72;;;37.33;24.97
73332;BME280;61560;33.718;73.040;2023-05-20T03:25:26;94136.13;;;37.45;24.89
73332;BME280;61560;33.718;73.040;2023-05-20T03:27:52;94142.41;;;37.62;24.32
73332;BME280;61560;33.718;73.040;2023-05-20T03:30:19;94136.00;;;37.73;24.00
73332;BME280;61560;33.718;73.040;2023-05-20T03:32:47;94140.41;;;38.05;22.93
73332;BME280;61560;33.718;73.040;2023-05-20T03:35:14;94144.94;;;38.29;22.81
73332;BME280;61560;33.718;73.040;2023-05-20T03:37:40;94139.75;;;38.37;22.62
73332;BME280;61560;33.718;73.040;2023-05-20T03:40:08;94139.88;;;38.61;22.97
73332;BME280;61560;33.718;73.040;2023-05-20T03:42:37;94135.63;;;38.83;22.41
73332;BME280;61560;33.718;73.040;2023-05-20T03:45:05;94141.38;;;39.15;21.75
73332;BME280;61560;33.718;73.040;2023-05-20T03:47:37;94134.13;;;39.70;21.06
73332;BME280;61560;33.718;73.040;2023-05-20T03:50:05;94140.25;;;40.46;20.28
73332;BME280;61560;33.718;73.040;2023-05-20T03:52:35;94136.84;;;41.23;19.67
73332;BME280;61560;33.718;73.040;2023-05-20T03:55:02;94136.69;;;41.98;18.60
73332;BME280;61560;33.718;73.040;2023-05-20T03:57:29;94133.50;;;42.87;17.78
73332;BME280;61560;33.718;73.040;2023-05-20T03:59:57;94127.91;;;43.50;16.20
73332;BME280;61560;33.718;73.040;2023-05-20T04:02:23;94123.66;;;44.29;15.01
73332;BME280;61560;33.718;73.040;2023-05-20T04:04:50;94128.44;;;45.22;14.59
73332;BME280;61560;33.718;73.040;2023-05-20T04:07:18;94124.81;;;46.13;13.99
73332;BME280;61560;33.718;73.040;2023-05-20T04:09:45;94114.50;;;46.89;13.48
73332;BME280;61560;33.718;73.040;2023-05-20T04:12:12;94105.88;;;47.56;12.32
73332;BME280;61560;33.718;73.040;2023-05-20T04:14:39;94104.03;;;48.39;11.78
73332;BME280;61560;33.718;73.040;2023-05-20T04:17:07;94108.19;;;49.11;11.84
73332;BME280;61560;33.718;73.040;2023-05-20T04:19:34;94105.88;;;49.65;11.10
73332;BME280;61560;33.718;73.040;2023-05-20T04:22:01;94103.75;;;49.99;10.97
73332;BME280;61560;33.718;73.040;2023-05-20T04:24:28;94092.97;;;50.42;10.29
73332;BME280;61560;33.718;73.040;2023-05-20T04:26:54;94094.59;;;50.85;9.70
73332;BME280;61560;33.718;73.040;2023-05-20T04:29:21;94105.72;;;51.36;8.98
73332;BME280;61560;33.718;73.040;2023-05-20T04:31:48;94103.97;;;51.63;9.04
73332;BME280;61560;33.718;73.040;2023-05-20T04:34:15;94104.69;;;51.63;8.00
73332;BME280;61560;33.718;73.040;2023-05-20T04:36:45;94107.00;;;51.71;8.49
73332;BME280;61560;33.718;73.040;2023-05-20T04:39:14;94096.53;;;52.03;8.18
73332;BME280;61560;33.718;73.040;2023-05-20T04:41:41;94099.63;;;52.15;8.24
73332;BME280;61560;33.718;73.040;2023-05-20T04:44:08;94108.97;;;52.60;7.82
73332;BME280;61560;33.718;73.040;2023-05-20T04:46:34;94107.06;;;52.86;8.09
73332;BME280;61560;33.718;73.040;2023-05-20T04:49:01;94102.13;;;53.03;8.36
73332;BME280;61560;33.718;73.040;2023-05-20T04:51:29;94108.69;;;52.99;7.78
73332;BME280;61560;33.718;73.040;2023-05-20T04:53:55;94103.47;;;52.90;7.70
73332;BME280;61560;33.718;73.040;2023-05-20T04:56:23;94097.91;;;53.20;7.27
73332;BME280;61560;33.718;73.040;2023-05-20T04:58:51;94094.78;;;53.00;7.89
73332;BME280;61560;33.718;73.040;2023-05-20T05:01:18;94103.63;;;53.06;8.15
73332;BME280;61560;33.718;73.040;2023-05-20T05:03:46;94094.22;;;53.18;7.99
73332;BME280;61560;33.718;73.040;2023-05-20T05:06:13;94096.94;;;52.97;7.80
73332;BME280;61560;33.718;73.040;2023-05-20T05:08:40;94104.72;;;52.73;8.47
73332;BME280;61560;33.718;73.040;2023-05-20T05:11:08;94097.22;;;52.58;8.13
73332;BME280;61560;33.718;73.040;2023-05-20T05:13:34;94103.09;;;52.58;8.03
73332;BME280;61560;33.718;73.040;2023-05-20T05:16:01;94091.84;;;52.36;7.98
73332;BME280;61560;33.718;73.040;2023-05-20T05:18:30;94102.97;;;51.94;8.07
73332;BME280;61560;33.718;73.040;2023-05-20T05:21:04;94099.44;;;51.53;7.54
73332;BME280;61560;33.718;73.040;2023-05-20T05:23:33;94092.56;;;51.37;8.43
73332;BME280;61560;33.718;73.040;2023-05-20T05:26:00;94096.19;;;50.94;8.55
73332;BME280;61560;33.718;73.040;2023-05-20T05:28:26;94096.09;;;50.88;8.13
73332;BME280;61560;33.718;73.040;2023-05-20T05:30:54;94091.81;;;50.55;8.71
73332;BME280;61560;33.718;73.040;2023-05-20T05:33:25;94088.31;;;50.27;8.42
73332;BME280;61560;33.718;73.040;2023-05-20T05:35:51;94086.63;;;49.82;9.15
73332;BME280;61560;33.718;73.040;2023-05-20T05:38:18;94079.69;;;49.06;9.75
73332;BME280;61560;33.718;73.040;2023-05-20T05:40:44;94081.56;;;48.42;10.04
73332;BME280;61560;33.718;73.040;2023-05-20T05:43:11;94085.59;;;48.05;10.49
73332;BME280;61560;33.718;73.040;2023-05-20T05:45:37;94084.38;;;47.65;10.85
73332;BME280;61560;33.718;73.040;2023-05-20T05:48:04;94074.38;;;47.25;10.88
73332;BME280;61560;33.718;73.040;2023-05-20T05:50:31;94083.34;;;46.89;11.38
73332;BME280;61560;33.718;73.040;2023-05-20T05:52:58;94081.84;;;46.67;11.75
73332;BME280;61560;33.718;73.040;2023-05-20T05:55:24;94077.19;;;46.38;11.50
73332;BME280;61560;33.718;73.040;2023-05-20T05:57:53;94075.25;;;46.25;11.39
73332;BME280;61560;33.718;73.040;2023-05-20T06:00:21;94078.47;;;46.13;11.67
73332;BME280;61560;33.718;73.040;2023-05-20T06:02:48;94080.25;;;46.22;12.18
73332;BME280;61560;33.718;73.040;2023-05-20T06:05:27;94077.81;;;45.95;12.62
73332;BME280;61560;33.718;73.040;2023-05-20T06:07:54;94077.88;;;45.60;12.15
73332;BME280;61560;33.718;73.040;2023-05-20T06:10:21;94080.28;;;45.48;12.90
73332;BME280;61560;33.718;73.040;2023-05-20T06:12:48;94075.50;;;45.55;13.69
73332;BME280;61560;33.718;73.040;2023-05-20T06:15:14;94074.44;;;45.28;13.26
73332;BME280;61560;33.718;73.040;2023-05-20T06:17:41;94071.72;;;44.97;13.38
73332;BME280;61560;33.718;73.040;2023-05-20T06:20:08;94070.44;;;44.67;13.75
73332;BME280;61560;33.718;73.040;2023-05-20T06:22:35;94068.34;;;44.19;13.88
73332;BME280;61560;33.718;73.040;2023-05-20T06:25:02;94062.63;;;43.72;13.92
73332;BME280;61560;33.718;73.040;2023-05-20T06:27:33;94063.88;;;43.38;13.83
73332;BME280;61560;33.718;73.040;2023-05-20T06:30:00;94058.25;;;43.10;13.84
73332;BME280;61560;33.718;73.040;2023-05-20T06:32:28;94067.41;;;42.91;14.36
73332;BME280;61560;33.718;73.040;2023-05-20T06:34:57;94063.81;;;42.77;14.45
73332;BME280;61560;33.718;73.040;2023-05-20T06:37:23;94059.81;;;42.55;14.28
73332;BME280;61560;33.718;73.040;2023-05-20T06:39:51;94059.50;;;42.35;14.02
73332;BME280;61560;33.718;73.040;2023-05-20T06:42:19;94052.69;;;42.29;14.68
73332;BME280;61560;33.718;73.040;2023-05-20T06:44:58;94058.84;;;42.37;14.43
73332;BME280;61560;33.718;73.040;2023-05-20T06:47:41;94060.69;;;42.44;14.03
73332;BME280;61560;33.718;73.040;2023-05-20T06:50:09;94059.06;;;42.55;12.73
73332;BME280;61560;33.718;73.040;2023-05-20T06:52:36;94060.84;;;42.62;12.84
73332;BME280;61560;33.718;73.040;2023-05-20T06:55:03;94052.09;;;42.60;13.10
73332;BME280;61560;33.718;73.040;2023-05-20T06:57:30;94053.50;;;42.59;13.36
73332;BME280;61560;33.718;73.040;2023-05-20T06:59:57;94055.38;;;42.68;13.19
73332;BME280;61560;33.718;73.040;2023-05-20T07:02:24;94043.13;;;42.67;11.05
73332;BME280;61560;33.718;73.040;2023-05-20T07:04:52;94048.06;;;42.65;11.34
73332;BME280;61560;33.718;73.040;2023-05-20T07:07:18;94041.03;;;42.54;11.68
73332;BME280;61560;33.718;73.040;2023-05-20T07:09:45;94033.16;;;42.55;12.55
73332;BME280;61560;33.718;73.040;2023-05-20T07:12:12;94028.03;;;42.39;13.10
73332;BME280;61560;33.718;73.040;2023-05-20T07:14:39;94031.66;;;42.40;12.29
73332;BME280;61560;33.718;73.040;2023-05-20T07:17:05;94027.78;;;42.20;11.98
73332;BME280;61560;33.718;73.040;2023-05-20T07:19:32;94026.16;;;42.03;11.55
73332;BME280;61560;33.718;73.040;2023-05-20T07:21:59;94031.31;;;41.91;12.21
73332;BME280;61560;33.718;73.040;2023-05-20T07:24:44;94028.09;;;41.99;12.68
73332;BME280;61560;33.718;73.040;2023-05-20T07:27:11;94032.88;;;41.94;13.03
73332;BME280;61560;33.718;73.040;2023-05-20T07:29:38;94020.75;;;41.82;13.34
73332;BME280;61560;33.718;73.040;2023-05-20T07:32:05;94020.34;;;41.74;12.94
73332;BME280;61560;33.718;73.040;2023-05-20T07:34:33;94028.53;;;41.80;13.53
73332;BME280;61560;33.718;73.040;2023-05-20T07:37:00;94026.84;;;41.75;13.50
73332;BME280;61560;33.718;73.040;2023-05-20T07:39:28;94019.66;;;41.62;13.57
73332;BME280;61560;33.718;73.040;2023-05-20T07:41:54;94008.16;;;41.48;13.15
73332;BME280;61560;33.718;73.040;2023-05-20T07:44:22;94018.28;;;41.49;13.46
73332;BME280;61560;33.718;73.040;2023-05-20T07:46:50;94020.50;;;41.51;12.96
73332;BME280;61560;33.718;73.040;2023-05-20T07:49:19;94003.78;;;41.47;13.44
73332;BME280;61560;33.718;73.040;2023-05-20T07:51:46;94021.16;;;41.36;13.36
73332;BME280;61560;33.718;73.040;2023-05-20T07:54:15;94011.22;;;41.25;13.52
73332;BME280;61560;33.718;73.040;2023-05-20T07:56:44;94008.88;;;41.22;14.13
73332;BME280;61560;33.718;73.040;2023-05-20T07:59:11;94009.34;;;41.18;13.76
73332;BME280;61560;33.718;73.040;2023-05-20T08:01:42;93999.53;;;41.10;13.75
73332;BME280;61560;33.718;73.040;2023-05-20T08:04:11;94005.72;;;41.04;13.31
73332;BME280;61560;33.718;73.040;2023-05-20T08:06:39;94000.91;;;40.95;13.30
73332;BME280;61560;33.718;73.040;2023-05-20T08:09:11;93984.31;;;40.94;13.16
73332;BME280;61560;33.718;73.040;2023-05-20T08:11:43;93984.31;;;40.94;12.74
73332;BME280;61560;33.718;73.040;2023-05-20T08:14:10;93988.97;;;40.87;13.51
73332;BME280;61560;33.718;73.040;2023-05-20T08:16:41;93992.16;;;40.93;13.49
73332;BME280;61560;33.718;73.040;2023-05-20T08:19:08;93976.84;;;40.89;13.29
73332;BME280;61560;33.718;73.040;2023-05-20T08:21:35;93970.78;;;40.83;12.37
73332;BME280;61560;33.718;73.040;2023-05-20T08:24:03;93978.50;;;40.80;12.74
73332;BME280;61560;33.718;73.040;2023-05-20T08:26:31;93968.56;;;40.69;13.17
73332;BME280;61560;33.718;73.040;2023-05-20T08:28:58;93976.41;;;40.55;12.84
73332;BME280;61560;33.718;73.040;2023-05-20T08:31:24;93969.03;;;40.52;13.10
73332;BME280;61560;33.718;73.040;2023-05-20T08:33:51;93965.94;;;40.48;13.39
73332;BME280;61560;33.718;73.040;2023-05-20T08:36:17;93956.22;;;40.42;13.26
73332;BME280;61560;33.718;73.040;2023-05-20T08:38:44;93955.75;;;40.34;13.20
73332;BME280;61560;33.718;73.040;2023-05-20T08:41:11;93949.06;;;40.29;13.96
73332;BME280;61560;33.718;73.040;2023-05-20T08:43:41;93946.78;;;40.28;13.67
73332;BME280;61560;33.718;73.040;2023-05-20T08:46:08;93944.03;;;40.30;12.96
73332;BME280;61560;33.718;73.040;2023-05-20T08:48:39;93932.31;;;40.26;13.22
73332;BME280;61560;33.718;73.040;2023-05-20T08:51:08;93930.50;;;40.19;13.73
73332;BME280;61560;33.718;73.040;2023-05-20T08:53:39;93928.66;;;40.12;13.54
73332;BME280;61560;33.718;73.040;2023-05-20T08:56:05;93923.91;;;40.16;12.71
73332;BME280;61560;33.718;73.040;2023-05-20T08:58:33;93928.00;;;40.13;12.27
73332;BME280;61560;33.718;73.040;2023-05-20T09:01:00;93923.03;;;40.14;12.12
73332;BME280;61560;33.718;73.040;2023-05-20T09:03:27;93921.31;;;40.09;11.58
73332;BME280;61560;33.718;73.040;2023-05-20T09:06:02;93922.28;;;40.13;12.40
73332;BME280;61560;33.718;73.040;2023-05-20T09:08:30;93920.28;;;40.16;12.20
73332;BME280;61560;33.718;73.040;2023-05-20T09:10:56;93919.78;;;40.19;11.89
73332;BME280;61560;33.718;73.040;2023-05-20T09:13:23;93913.91;;;40.17;12.18
73332;BME280;61560;33.718;73.040;2023-05-20T09:15:50;93913.16;;;40.17;11.92
73332;BME280;61560;33.718;73.040;2023-05-20T09:18:17;93911.31;;;40.10;11.90
73332;BME280;61560;33.718;73.040;2023-05-20T09:20:45;93899.50;;;40.03;11.14
73332;BME280;61560;33.718;73.040;2023-05-20T09:23:12;93900.91;;;40.02;11.14
73332;BME280;61560;33.718;73.040;2023-05-20T09:25:39;93902.38;;;40.03;11.32
73332;BME280;61560;33.718;73.040;2023-05-20T09:28:09;93893.53;;;39.99;11.50
73332;BME280;61560;33.718;73.040;2023-05-20T09:30:36;93900.66;;;39.98;11.02
73332;BME280;61560;33.718;73.040;2023-05-20T09:33:04;93891.78;;;39.94;11.05
73332;BME280;61560;33.718;73.040;2023-05-20T09:35:34;93890.94;;;39.92;10.75
73332;BME280;61560;33.718;73.040;2023-05-20T09:38:05;93879.34;;;39.90;10.26
73332;BME280;61560;33.718;73.040;2023-05-20T09:40:34;93885.31;;;39.94;10.49
73332;BME280;61560;33.718;73.040;2023-05-20T09:43:06;93881.03;;;39.95;9.67
73332;BME280;61560;33.718;73.040;2023-05-20T09:45:33;93877.94;;;39.91;9.68
73332;BME280;61560;33.718;73.040;2023-05-20T09:48:01;93880.19;;;39.92;9.89
73332;BME280;61560;33.718;73.040;2023-05-20T09:50:31;93887.06;;;39.87;9.83
73332;BME280;61560;33.718;73.040;2023-05-20T09:53:02;93875.38;;;39.83;10.29
73332;BME280;61560;33.718;73.040;2023-05-20T09:55:29;93873.13;;;39.82;10.77
73332;BME280;61560;33.718;73.040;2023-05-20T09:58:01;93883.09;;;39.81;11.27
73332;BME280;61560;33.718;73.040;2023-05-20T10:00:28;93874.28;;;39.77;11.42
73332;BME280;61560;33.718;73.040;2023-05-20T10:02:55;93877.66;;;39.73;11.25
73332;BME280;61560;33.718;73.040;2023-05-20T10:05:26;93873.16;;;39.70;11.40
73332;BME280;61560;33.718;73.040;2023-05-20T10:11:12;93876.56;;;39.67;11.52
73332;BME280;61560;33.718;73.040;2023-05-20T10:17:09;93864.97;;;39.65;11.26
73332;BME280;61560;33.718;73.040;2023-05-20T10:19:39;93859.88;;;39.63;11.65
73332;BME280;61560;33.718;73.040;2023-05-20T10:22:08;93869.06;;;39.62;11.36
73332;BME280;61560;33.718;73.040;2023-05-20T10:24:40;93874.47;;;39.56;10.68
73332;BME280;61560;33.718;73.040;2023-05-20T10:27:11;93865.47;;;39.50;10.01
73332;BME280;61560;33.718;73.040;2023-05-20T10:29:54;93863.38;;;39.50;9.57
73332;BME280;61560;33.718;73.040;2023-05-20T10:32:28;93860.16;;;39.44;9.27
73332;BME280;61560;33.718;73.040;2023-05-20T10:35:07;93864.13;;;39.39;9.52
73332;BME280;61560;33.718;73.040;2023-05-20T10:37:42;93854.44;;;39.33;9.55
73332;BME280;61560;33.718;73.040;2023-05-20T10:40:14;93867.41;;;39.34;10.00
73332;BME280;61560;33.718;73.040;2023-05-20T10:42:42;93866.03;;;39.35;10.32
73332;BME280;61560;33.718;73.040;2023-05-20T10:45:09;93866.03;;;39.35;10.13
73332;BME280;61560;33.718;73.040;2023-05-20T10:47:36;93862.94;;;39.31;10.38
73332;BME280;61560;33.718;73.040;2023-05-20T10:50:07;93864.41;;;39.32;10.57
73332;BME280;61560;33.718;73.040;2023-05-20T10:52:40;93860.56;;;39.27;10.05
73332;BME280;61560;33.718;73.040;2023-05-20T10:55:18;93860.94;;;39.21;10.65
73332;BME280;61560;33.718;73.040;2023-05-20T10:57:44;93866.56;;;39.19;11.30
73332;BME280;61560;33.718;73.040;2023-05-20T11:00:12;93873.41;;;39.14;11.22
73332;BME280;61560;33.718;73.040;2023-05-20T11:02:39;93864.69;;;39.12;11.42
73332;BME280;61560;33.718;73.040;2023-05-20T11:05:10;93863.31;;;39.13;11.97
73332;BME280;61560;33.718;73.040;2023-05-20T11:07:40;93872.41;;;39.10;11.69
73332;BME280;61560;33.718;73.040;2023-05-20T11:10:07;93870.78;;;39.07;11.84
73332;BME280;61560;33.718;73.040;2023-05-20T11:12:35;93860.47;;;39.02;11.21
73332;BME280;61560;33.718;73.040;2023-05-20T11:15:02;93855.34;;;39.00;11.22
73332;BME280;61560;33.718;73.040;2023-05-20T11:17:28;93868.06;;;38.97;11.24
73332;BME280;61560;33.718;73.040;2023-05-20T11:19:58;93869.28;;;38.94;11.21
73332;BME280;61560;33.718;73.040;2023-05-20T11:22:26;93864.06;;;38.91;11.02
73332;BME280;61560;33.718;73.040;2023-05-20T11:24:54;93857.97;;;38.85;10.30
73332;BME280;61560;33.718;73.040;2023-05-20T11:27:20;93857.72;;;38.81;10.44
73332;BME280;61560;33.718;73.040;2023-05-20T11:29:49;93860.22;;;38.75;9.97
73332;BME280;61560;33.718;73.040;2023-05-20T11:32:18;93856.59;;;38.74;10.44
73332;BME280;61560;33.718;73.040;2023-05-20T11:34:45;93859.09;;;38.68;10.24
73332;BME280;61560;33.718;73.040;2023-05-20T11:37:17;93862.44;;;38.65;10.42
73332;BME280;61560;33.718;73.040;2023-05-20T11:39:46;93861.56;;;38.62;10.57
73332;BME280;61560;33.718;73.040;2023-05-20T11:42:14;93860.69;;;38.60;9.86
73332;BME280;61560;33.718;73.040;2023-05-20T11:44:44;93866.16;;;38.56;9.51
73332;BME280;61560;33.718;73.040;2023-05-20T11:47:11;93866.78;;;38.54;9.42
73332;BME280;61560;33.718;73.040;2023-05-20T11:49:41;93869.53;;;38.52;9.83
73332;BME280;61560;33.718;73.040;2023-05-20T11:52:08;93861.44;;;38.48;10.01
73332;BME280;61560;33.718;73.040;2023-05-20T11:54:36;93861.19;;;38.44;10.03
73332;BME280;61560;33.718;73.040;2023-05-20T11:57:02;93858.94;;;38.43;9.97
73332;BME280;61560;33.718;73.040;2023-05-20T11:59:29;93858.06;;;38.40;9.91
73332;BME280;61560;33.718;73.040;2023-05-20T12:01:56;93860.81;;;38.38;10.48
73332;BME280;61560;33.718;73.040;2023-05-20T12:04:22;93862.28;;;38.39;9.92
73332;BME280;61560;33.718;73.040;2023-05-20T12:06:49;93866.25;;;38.34;10.60
73332;BME280;61560;33.718;73.040;2023-05-20T12:09:16;93863.75;;;38.29;9.39
73332;BME280;61560;33.718;73.040;2023-05-20T12:11:42;93855.38;;;38.21;9.14
73332;BME280;61560;33.718;73.040;2023-05-20T12:14:10;93855.13;;;38.17;10.05
73332;BME280;61560;33.718;73.040;2023-05-20T12:16:37;93861.81;;;38.10;10.17
73332;BME280;61560;33.718;73.040;2023-05-20T12:19:04;93870.28;;;38.08;9.83
73332;BME280;61560;33.718;73.040;2023-05-20T12:21:31;93869.88;;;38.02;10.00
73332;BME280;61560;33.718;73.040;2023-05-20T12:24:00;93864.03;;;38.00;10.69
73332;BME280;61560;33.718;73.040;2023-05-20T12:26:30;93873.88;;;37.97;10.34
73332;BME280;61560;33.718;73.040;2023-05-20T12:28:57;93863.53;;;37.92;9.94
73332;BME280;61560;33.718;73.040;2023-05-20T12:31:24;93871.09;;;37.88;10.66
73332;BME280;61560;33.718;73.040;2023-05-20T12:33:50;93870.34;;;37.87;10.18
73332;BME280;61560;33.718;73.040;2023-05-20T12:36:17;93866.47;;;37.83;10.76
73332;BME280;61560;33.718;73.040;2023-05-20T12:38:44;93867.28;;;37.73;10.31
73332;BME280;61560;33.718;73.040;2023-05-20T12:41:11;93871.50;;;37.72;10.52
73332;BME280;61560;33.718;73.040;2023-05-20T12:43:38;93868.13;;;37.64;10.14
73332;BME280;61560;33.718;73.040;2023-05-20T12:46:04;93868.00;;;37.62;9.33
73332;BME280;61560;33.718;73.040;2023-05-20T12:48:31;93876.41;;;37.60;9.75
73332;BME280;61560;33.718;73.040;2023-05-20T12:50:58;93870.91;;;37.53;10.31
73332;BME280;61560;33.718;73.040;2023-05-20T12:53:24;93871.28;;;37.47;10.79
73332;BME280;61560;33.718;73.040;2023-05-20T12:55:51;93869.97;;;37.39;11.31
73332;BME280;61560;33.718;73.040;2023-05-20T12:58:19;93870.75;;;37.30;11.82
73332;BME280;61560;33.718;73.040;2023-05-20T13:00:46;93869.34;;;37.19;11.71
73332;BME280;61560;33.718;73.040;2023-05-20T13:03:12;93874.16;;;37.17;11.59